Time;durP1;ratioP1;P1;durP2;ratioP2;P2;SDS_P1;SDS_P2;PMS_P1;PMS_P2;Temp;Humidity;BMP_temperature;BMP_pressure;BME280_temperature;BME280_humidity;BME280_pressure;Samples;Min_cycle;Max_cycle;Signal;HPM_P1;HPM_P2
2023/07/23 00:00:11;;;;;;;13.50;4.00;;;;;;;29.65;45.57;98522.00;5093443;28;20035;-78
2023/07/23 00:02:37;;;;;;;18.00;4.38;;;;;;;29.64;45.72;98525.75;5059472;28;20051;-78
2023/07/23 00:05:02;;;;;;;16.35;4.68;;;;;;;29.58;45.64;98534.81;5092705;28;20044;-78
2023/07/23 00:07:28;;;;;;;13.73;3.95;;;;;;;29.53;45.44;98553.56;5092842;28;20063;-77
2023/07/23 00:09:53;;;;;;;11.85;4.22;;;;;;;29.51;45.46;98574.47;5075940;28;20028;-77
2023/07/23 00:12:19;;;;;;;8.40;4.15;;;;;;;29.47;46.21;98602.94;5092873;28;20032;-77
2023/07/23 00:14:44;;;;;;;13.98;4.13;;;;;;;29.50;44.91;98619.38;5092349;28;20479;-79
2023/07/23 00:17:10;;;;;;;11.10;3.60;;;;;;;29.33;45.37;98616.66;5092512;28;20063;-80
2023/07/23 00:19:35;;;;;;;14.55;4.13;;;;;;;29.29;45.34;98598.56;5075868;28;20502;-80
2023/07/23 00:22:01;;;;;;;18.08;4.18;;;;;;;29.20;44.80;98579.34;5058854;28;20039;-76
2023/07/23 00:24:27;;;;;;;12.57;3.88;;;;;;;29.15;44.76;98552.38;5092316;28;20035;-77
2023/07/23 00:26:52;;;;;;;16.67;4.40;;;;;;;29.05;44.92;98550.31;5059132;28;20545;-77
2023/07/23 00:29:18;;;;;;;9.80;3.50;;;;;;;29.05;45.00;98563.75;5058802;28;20096;-77
2023/07/23 00:31:43;;;;;;;14.82;3.78;;;;;;;29.07;45.44;98568.91;5075702;28;20111;-77
2023/07/23 00:34:09;;;;;;;15.93;4.07;;;;;;;29.08;45.12;98582.06;5092428;28;20035;-75
2023/07/23 00:36:34;;;;;;;13.43;3.65;;;;;;;29.00;45.29;98558.28;5074673;28;20146;-75
2023/07/23 00:39:00;;;;;;;15.13;3.20;;;;;;;28.92;45.42;98575.59;5091179;28;20043;-75
2023/07/23 00:41:25;;;;;;;10.82;3.10;;;;;;;28.88;45.56;98577.16;5091557;28;20474;-77
2023/07/23 00:43:51;;;;;;;13.52;3.08;;;;;;;28.90;45.85;98588.47;5091694;28;20039;-75
2023/07/23 00:46:16;;;;;;;10.13;2.47;;;;;;;28.90;45.09;98595.72;5093430;28;20024;-76
2023/07/23 00:48:42;;;;;;;8.90;2.40;;;;;;;28.92;44.71;98580.97;5093224;28;20031;-79
2023/07/23 00:51:07;;;;;;;9.63;2.47;;;;;;;28.86;44.88;98581.94;5074963;28;20552;-78
2023/07/23 00:53:33;;;;;;;4.85;2.22;;;;;;;28.89;44.52;98586.81;5054638;28;20084;-76
2023/07/23 00:55:59;;;;;;;8.48;2.38;;;;;;;28.77;45.31;98567.28;5054902;28;20035;-78
2023/07/23 00:58:24;;;;;;;13.50;2.67;;;;;;;28.79;44.81;98571.34;5054535;28;20495;-78
2023/07/23 01:00:50;;;;;;;7.30;2.20;;;;;;;28.76;44.60;98560.25;5071665;28;20102;-77
2023/07/23 01:03:16;;;;;;;12.27;2.60;;;;;;;28.79;44.56;98560.59;5071994;28;20418;-78
2023/07/23 01:05:42;;;;;;;14.30;2.85;;;;;;;28.72;44.05;98557.25;5071465;28;20060;-78
2023/07/23 01:08:08;;;;;;;5.75;2.58;;;;;;;28.71;44.37;98552.13;5054824;28;20055;-77
2023/07/23 01:10:33;;;;;;;9.35;2.53;;;;;;;28.77;44.39;98549.28;5054626;28;20393;-77
2023/07/23 01:12:59;;;;;;;11.07;2.35;;;;;;;28.80;44.68;98543.44;5088360;28;20024;-77
2023/07/23 01:15:25;;;;;;;8.15;2.50;;;;;;;28.83;44.18;98564.44;5071280;28;20136;-78
2023/07/23 01:17:50;;;;;;;7.10;2.65;;;;;;;28.82;44.56;98565.47;5054591;28;20094;-76
2023/07/23 01:20:16;;;;;;;7.90;2.58;;;;;;;28.77;44.35;98553.84;5071135;28;20411;-75
2023/07/23 01:22:41;;;;;;;11.88;2.80;;;;;;;28.82;44.70;98565.47;5054162;28;20549;-76
2023/07/23 01:25:07;;;;;;;8.57;2.85;;;;;;;28.85;44.61;98578.44;5070429;28;20032;-75
2023/07/23 01:27:33;;;;;;;9.93;2.72;;;;;;;28.80;44.71;98589.09;5088287;28;20029;-75
2023/07/23 01:29:58;;;;;;;10.95;3.10;;;;;;;28.81;44.54;98582.69;5071377;28;20028;-75
2023/07/23 01:32:24;;;;;;;8.35;2.90;;;;;;;28.84;44.51;98592.09;5070941;28;20036;-75
2023/07/23 01:34:49;;;;;;;6.38;2.58;;;;;;;28.85;45.08;98591.06;5071103;28;20036;-75
2023/07/23 01:37:15;;;;;;;10.73;3.13;;;;;;;28.90;44.71;98572.34;5070956;28;20029;-75
2023/07/23 01:39:42;;;;;;;10.43;3.00;;;;;;;28.88;44.77;98579.84;5071013;28;20035;-77
2023/07/23 01:42:11;;;;;;;7.53;3.15;;;;;;;28.87;44.67;98564.75;5054651;28;20031;-76
2023/07/23 01:44:36;;;;;;;10.40;2.97;;;;;;;28.89;44.82;98559.97;5071165;28;20025;-76
2023/07/23 01:47:02;;;;;;;7.55;3.03;;;;;;;28.87;45.30;98588.94;5054189;28;20021;-76
2023/07/23 01:49:27;;;;;;;7.88;2.67;;;;;;;28.91;45.11;98600.00;5071095;28;20040;-76
2023/07/23 01:51:53;;;;;;;8.95;2.70;;;;;;;28.85;45.23;98607.97;5071241;28;20028;-79
2023/07/23 01:54:19;;;;;;;9.88;3.08;;;;;;;28.84;45.46;98632.41;5072439;28;20029;-78
2023/07/23 01:56:45;;;;;;;9.15;2.88;;;;;;;28.81;45.79;98640.94;5087865;28;20029;-75
2023/07/23 01:59:11;;;;;;;8.98;2.80;;;;;;;28.79;45.78;98653.78;5070771;28;20112;-75
2023/07/23 02:01:36;;;;;;;12.75;3.28;;;;;;;28.77;45.83;98650.53;5071869;28;20396;-75
2023/07/23 02:04:02;;;;;;;7.45;2.25;;;;;;;28.74;45.78;98653.69;5053781;28;20053;-77
2023/07/23 02:06:28;;;;;;;10.32;3.05;;;;;;;28.64;46.01;98657.81;5037421;28;20033;-74
2023/07/23 02:08:53;;;;;;;8.23;2.75;;;;;;;28.66;45.93;98668.31;5070861;28;20098;-74
2023/07/23 02:11:19;;;;;;;10.43;3.10;;;;;;;28.71;45.53;98675.66;5072162;28;20025;-74
2023/07/23 02:13:44;;;;;;;12.25;3.15;;;;;;;28.68;45.34;98669.69;5071643;28;20451;-74
2023/07/23 02:16:19;;;;;;;8.15;2.95;;;;;;;28.62;45.68;98657.22;5070846;28;20036;-74
2023/07/23 02:18:44;;;;;;;8.20;2.85;;;;;;;28.61;45.58;98658.28;5053922;28;20464;-75
2023/07/23 02:21:10;;;;;;;7.72;3.03;;;;;;;28.56;45.55;98652.78;5070554;28;20086;-75
2023/07/23 02:23:35;;;;;;;17.92;3.65;;;;;;;28.64;45.80;98652.44;5053037;28;20040;-74
2023/07/23 02:26:01;;;;;;;8.45;3.03;;;;;;;28.63;45.80;98634.69;5070104;28;20033;-74
2023/07/23 02:28:26;;;;;;;9.55;2.92;;;;;;;28.64;45.70;98620.22;5087429;28;20032;-76
2023/07/23 02:30:56;;;;;;;11.10;3.00;;;;;;;28.64;45.94;98628.25;5053232;28;20037;-76
2023/07/23 02:33:22;;;;;;;10.73;3.20;;;;;;;28.64;45.89;98625.56;5087305;28;20031;-75
2023/07/23 02:35:47;;;;;;;6.90;2.60;;;;;;;28.67;45.79;98653.81;5070683;28;20033;-75
2023/07/23 02:38:13;;;;;;;18.38;3.47;;;;;;;28.62;45.82;98641.13;5074831;28;20468;-75
2023/07/23 02:40:38;;;;;;;9.13;3.13;;;;;;;28.52;46.44;98627.44;5073599;28;20083;-76
2023/07/23 02:43:04;;;;;;;12.52;3.08;;;;;;;28.46;46.60;98631.88;5073974;28;20476;-76
2023/07/23 02:45:29;;;;;;;14.30;3.30;;;;;;;28.45;46.50;98641.00;5057316;28;20029;-76
2023/07/23 02:47:55;;;;;;;8.52;2.90;;;;;;;28.40;46.87;98632.84;5073800;28;20031;-75
2023/07/23 02:50:20;;;;;;;12.05;2.88;;;;;;;28.38;46.89;98645.66;5074543;28;20051;-75
2023/07/23 02:52:46;;;;;;;8.05;3.22;;;;;;;28.41;46.45;98639.00;5074401;28;20044;-75
2023/07/23 02:55:11;;;;;;;7.82;3.08;;;;;;;28.38;46.63;98629.56;5073723;28;20033;-76
2023/07/23 02:57:37;;;;;;;9.27;3.45;;;;;;;28.38;46.79;98642.16;5090400;28;20037;-76
2023/07/23 03:00:03;;;;;;;10.77;3.50;;;;;;;28.42;46.61;98643.34;5090609;28;20116;-76
2023/07/23 03:02:29;;;;;;;7.20;3.30;;;;;;;28.40;46.81;98632.84;5056762;28;20130;-77
2023/07/23 03:04:55;;;;;;;8.02;3.17;;;;;;;28.43;46.76;98648.47;5056313;28;20411;-75
2023/07/23 03:07:20;;;;;;;10.50;3.05;;;;;;;28.41;46.85;98652.44;5090473;28;20483;-77
2023/07/23 03:09:46;;;;;;;8.27;2.80;;;;;;;28.39;46.66;98662.59;5073083;28;20090;-77
2023/07/23 03:12:11;;;;;;;9.77;3.10;;;;;;;28.29;46.70;98653.28;5073731;28;20074;-77
2023/07/23 03:14:37;;;;;;;7.28;2.88;;;;;;;28.18;47.06;98654.09;5073601;28;20039;-77
2023/07/23 03:17:02;;;;;;;10.10;3.70;;;;;;;28.28;47.00;98666.94;5073729;28;20403;-77
2023/07/23 03:19:28;;;;;;;8.23;3.17;;;;;;;28.31;46.98;98680.69;5056315;28;20040;-78
2023/07/23 03:21:53;;;;;;;8.20;3.20;;;;;;;28.45;46.56;98712.66;5074366;28;20411;-77
2023/07/23 03:24:19;;;;;;;8.45;2.85;;;;;;;28.55;46.32;98715.56;5073473;28;20033;-77
2023/07/23 03:26:45;;;;;;;9.15;2.88;;;;;;;28.80;45.36;98723.41;5073120;28;20437;-77
2023/07/23 03:29:10;;;;;;;8.82;2.92;;;;;;;29.00;44.35;98706.88;5056279;28;20036;-77
2023/07/23 03:31:36;;;;;;;10.05;3.55;;;;;;;29.21;43.46;98713.50;5073396;28;20028;-75
2023/07/23 03:34:01;;;;;;;9.57;3.13;;;;;;;29.21;43.67;98720.75;5055544;28;20044;-72
2023/07/23 03:36:27;;;;;;;8.40;2.63;;;;;;;29.60;42.44;98710.16;5089417;28;20047;-72
2023/07/23 03:38:52;;;;;;;8.23;2.60;;;;;;;29.94;41.30;98705.66;5072996;28;20025;-76
2023/07/23 03:41:18;;;;;;;12.02;2.97;;;;;;;30.29;40.53;98696.50;5073392;28;20529;-76
2023/07/23 03:43:44;;;;;;;6.88;2.60;;;;;;;30.62;39.62;98700.22;5056142;28;20056;-77
2023/07/23 03:46:09;;;;;;;7.25;2.83;;;;;;;30.92;39.34;98700.88;5074106;28;20441;-77
2023/07/23 03:48:34;;;;;;;8.23;2.90;;;;;;;31.18;39.27;98710.91;5073177;28;20121;-77
2023/07/23 03:51:00;;;;;;;7.78;2.35;;;;;;;31.51;38.41;98708.28;5074312;28;20468;-78
2023/07/23 03:53:25;;;;;;;8.65;2.50;;;;;;;31.85;38.10;98710.78;5072559;28;20117;-74
2023/07/23 03:55:51;;;;;;;7.95;2.15;;;;;;;32.26;37.15;98713.81;5072179;28;20490;-74
2023/07/23 03:58:17;;;;;;;8.30;2.55;;;;;;;32.25;37.51;98699.50;5072006;28;20041;-74
2023/07/23 04:00:42;;;;;;;6.90;2.50;;;;;;;31.96;37.84;98699.00;5072400;28;20494;-74
2023/07/23 04:03:08;;;;;;;6.90;2.53;;;;;;;32.55;36.97;98706.16;5088887;28;20036;-74
2023/07/23 04:05:33;;;;;;;6.82;2.65;;;;;;;33.05;36.05;98697.75;5088681;28;20075;-74
2023/07/23 04:07:59;;;;;;;8.57;2.90;;;;;;;33.27;36.13;98702.97;5072343;28;20116;-82
2023/07/23 04:10:24;;;;;;;12.10;2.40;;;;;;;34.03;34.71;98688.72;5055458;28;20036;-80
2023/07/23 04:12:50;;;;;;;7.55;2.47;;;;;;;34.70;33.42;98698.63;5072182;28;20032;-86
2023/07/23 04:15:15;;;;;;;12.82;2.53;;;;;;;34.79;33.18;98703.22;5071750;28;20036;-87
2023/07/23 04:17:41;;;;;;;11.73;2.72;;;;;;;35.34;32.54;98710.56;5072060;28;20031;-83
2023/07/23 04:20:07;;;;;;;9.07;2.40;;;;;;;35.64;31.82;98704.13;5089098;28;20036;-83
2023/07/23 04:22:32;;;;;;;8.20;2.40;;;;;;;36.08;31.27;98701.63;5073108;28;20059;-82
2023/07/23 04:24:58;;;;;;;7.30;2.30;;;;;;;36.80;30.06;98704.44;5072973;28;20036;-82
2023/07/23 04:27:23;;;;;;;9.95;2.70;;;;;;;37.42;29.01;98700.91;5071873;28;20380;-81
2023/07/23 04:29:49;;;;;;;7.82;2.50;;;;;;;37.90;28.58;98705.34;5071823;28;20028;-82
2023/07/23 04:32:14;;;;;;;11.25;2.70;;;;;;;38.32;27.81;98707.06;5071000;28;20546;-82
2023/07/23 04:34:40;;;;;;;9.70;2.50;;;;;;;38.86;27.04;98695.69;5071653;28;20032;-83
2023/07/23 04:37:06;;;;;;;10.48;2.67;;;;;;;38.77;27.19;98711.16;5054727;28;20033;-82
2023/07/23 04:39:32;;;;;;;10.93;2.58;;;;;;;39.55;26.50;98722.88;5079279;28;20501;-83
2023/07/23 04:41:58;;;;;;;9.65;2.45;;;;;;;40.10;25.60;98719.03;5091002;28;20032;-83
2023/07/23 04:44:23;;;;;;;7.47;2.53;;;;;;;40.71;24.80;98726.75;5090532;28;20024;-83
2023/07/23 04:46:49;;;;;;;8.07;2.50;;;;;;;41.25;24.31;98720.28;5057374;28;20031;-83
2023/07/23 04:49:14;;;;;;;9.48;2.47;;;;;;;41.70;23.58;98723.50;5089778;28;20094;-84
2023/07/23 04:51:39;;;;;;;7.80;2.42;;;;;;;42.11;23.08;98724.91;5107722;28;20143;-84
2023/07/23 04:54:05;;;;;;;7.25;2.45;;;;;;;42.32;22.76;98728.88;5091782;28;20039;-84
2023/07/23 04:56:31;;;;;;;7.40;2.50;;;;;;;41.64;23.38;98724.81;5087257;28;20029;-83
2023/07/23 04:58:56;;;;;;;6.80;2.27;;;;;;;41.16;24.24;98721.03;5052949;28;20059;-84
2023/07/23 05:01:22;;;;;;;6.25;2.30;;;;;;;40.40;25.24;98733.03;5052774;28;20102;-88
2023/07/23 05:03:47;;;;;;;8.57;2.67;;;;;;;39.74;25.72;98733.59;5071304;28;20561;-87
2023/07/23 05:06:13;;;;;;;10.77;2.47;;;;;;;40.92;24.63;98740.66;5071403;28;20051;-86
2023/07/23 05:08:38;;;;;;;10.45;2.65;;;;;;;40.40;25.24;98735.75;5087953;28;20099;-84
2023/07/23 05:11:04;;;;;;;9.13;2.45;;;;;;;40.30;25.56;98736.84;5088373;28;20079;-84
2023/07/23 05:13:30;;;;;;;11.25;2.65;;;;;;;39.56;26.38;98748.25;5054743;28;20033;-86
2023/07/23 05:15:58;;;;;;;11.73;2.65;;;;;;;38.65;27.70;98758.84;5054699;28;20114;-84
2023/07/23 05:18:24;;;;;;;9.70;2.58;;;;;;;37.98;28.85;98754.50;5055000;28;20514;-85
2023/07/23 05:20:49;;;;;;;9.27;2.60;;;;;;;37.53;29.74;98759.53;5054582;28;20125;-86
2023/07/23 05:23:15;;;;;;;11.07;2.92;;;;;;;38.94;27.80;98757.72;5071968;28;20108;-84
2023/07/23 05:25:42;;;;;;;9.48;2.85;;;;;;;40.11;26.48;98758.94;5070167;28;20043;-80
2023/07/23 05:28:08;;;;;;;7.97;2.70;;;;;;;38.90;28.08;98767.59;5070963;28;20461;-80
2023/07/23 05:30:33;;;;;;;10.25;2.75;;;;;;;38.99;27.96;98754.88;5054259;28;20025;-80
2023/07/23 05:32:59;;;;;;;7.43;2.50;;;;;;;39.47;27.63;98761.78;5071212;28;20028;-84
2023/07/23 05:35:24;;;;;;;7.35;2.60;;;;;;;41.35;25.07;98767.31;5053800;28;20045;-84
2023/07/23 05:37:50;;;;;;;7.03;2.17;;;;;;;42.54;23.97;98764.31;5087938;28;20028;-84
2023/07/23 05:40:15;;;;;;;7.90;2.47;;;;;;;42.95;23.09;98773.81;5072050;28;20032;-83
2023/07/23 05:42:41;;;;;;;7.53;2.67;;;;;;;41.72;24.91;98765.13;5071962;28;20086;-83
2023/07/23 05:45:07;;;;;;;9.73;2.70;;;;;;;43.41;22.91;98764.97;5087624;28;20127;-85
2023/07/23 05:47:32;;;;;;;13.70;2.70;;;;;;;43.95;21.96;98767.78;5069973;28;20123;-85
2023/07/23 05:49:58;;;;;;;5.70;2.20;;;;;;;43.63;22.14;98767.38;5070777;28;20075;-84
2023/07/23 05:52:24;;;;;;;9.90;2.77;;;;;;;44.15;22.38;98770.78;5072021;28;20051;-84
2023/07/23 05:54:49;;;;;;;6.03;2.22;;;;;;;45.03;21.26;98774.13;5070288;28;20040;-84
2023/07/23 05:57:15;;;;;;;11.10;3.10;;;;;;;45.65;20.16;98762.97;5070792;28;20054;-86
2023/07/23 05:59:40;;;;;;;6.77;2.13;;;;;;;46.06;20.28;98758.19;5070768;28;20059;-84
2023/07/23 06:02:06;;;;;;;8.77;2.70;;;;;;;46.36;19.76;98752.28;5071800;28;20039;-86
2023/07/23 06:04:31;;;;;;;5.97;2.40;;;;;;;45.48;19.94;98742.84;5070053;28;20055;-84
2023/07/23 06:06:57;;;;;;;10.50;2.53;;;;;;;46.14;19.29;98737.91;5087222;28;20132;-84
2023/07/23 06:09:22;;;;;;;6.50;2.47;;;;;;;46.73;19.35;98740.94;5070357;28;20041;-84
2023/07/23 06:11:48;;;;;;;7.10;2.70;;;;;;;47.08;18.79;98732.69;5071955;28;20025;-84
2023/07/23 06:14:13;;;;;;;9.70;2.73;;;;;;;47.55;18.58;98739.19;5056693;28;20033;-84
2023/07/23 06:16:39;;;;;;;13.10;2.87;;;;;;;47.85;18.20;98732.28;5091293;28;20032;-83
2023/07/23 06:19:04;;;;;;;6.80;2.37;;;;;;;48.08;18.08;98737.84;5091323;28;20475;-83
2023/07/23 06:21:30;;;;;;;9.70;2.60;;;;;;;48.19;17.67;98733.31;5078527;28;20028;-82
2023/07/23 06:23:55;;;;;;;12.47;2.60;;;;;;;48.35;17.74;98731.19;5077974;28;20448;-83
2023/07/23 06:26:23;;;;;;;8.57;2.63;;;;;;;48.56;17.43;98726.41;5079355;28;20094;-83
2023/07/23 06:28:49;;;;;;;9.52;2.40;;;;;;;48.63;17.17;98732.03;5074607;28;20056;-82
2023/07/23 06:31:14;;;;;;;7.30;2.57;;;;;;;48.70;17.86;98734.91;5075477;28;20066;-82
2023/07/23 06:33:40;;;;;;;9.90;2.97;;;;;;;48.76;17.50;98733.41;5074140;28;20028;-81
2023/07/23 06:36:05;;;;;;;11.80;2.93;;;;;;;48.77;17.38;98734.22;5074892;28;20040;-81
2023/07/23 06:38:31;;;;;;;8.67;2.60;;;;;;;48.83;17.09;98735.50;5074396;28;20391;-82
2023/07/23 06:40:56;;;;;;;12.57;2.80;;;;;;;48.81;17.41;98730.34;5074140;28;20021;-82
2023/07/23 06:43:22;;;;;;;10.17;2.80;;;;;;;48.75;17.62;98729.03;5074223;28;20059;-80
2023/07/23 06:45:50;;;;;;;10.23;2.53;;;;;;;48.74;17.35;98730.19;5074112;28;20291;-80
2023/07/23 06:48:20;;;;;;;8.55;2.40;;;;;;;48.74;17.10;98721.91;5071067;28;20059;-84
2023/07/23 06:50:46;;;;;;;9.27;2.65;;;;;;;48.72;17.43;98733.34;5069037;28;20031;-85
2023/07/23 06:53:11;;;;;;;9.57;2.83;;;;;;;48.65;17.94;98727.72;5077118;28;20024;-85
2023/07/23 06:55:56;;;;;;;9.20;2.60;;;;;;;48.54;17.61;98738.63;5077119;28;20483;-87
2023/07/23 06:58:22;;;;;;;8.67;2.83;;;;;;;48.62;17.44;98730.44;5093939;28;20036;-85
2023/07/23 07:00:47;;;;;;;13.10;3.00;;;;;;;48.57;17.53;98728.78;5076927;28;20290;-85
2023/07/23 07:03:13;;;;;;;10.33;2.70;;;;;;;48.45;17.44;98732.56;5060022;28;20054;-84
2023/07/23 07:05:38;;;;;;;8.63;2.77;;;;;;;48.35;17.79;98717.34;5059430;28;20059;-83
2023/07/23 07:08:04;;;;;;;8.37;2.70;;;;;;;48.28;17.71;98713.66;5085351;28;20466;-87
2023/07/23 07:10:29;;;;;;;11.63;3.03;;;;;;;47.89;18.03;98731.19;5055400;28;20097;-81
2023/07/23 07:12:55;;;;;;;29.93;3.30;;;;;;;47.83;18.33;98722.38;5109352;28;20043;-75
2023/07/23 07:15:20;;;;;;;9.07;2.47;;;;;;;47.84;18.18;98728.69;5073403;28;20033;-75
2023/07/23 07:17:46;;;;;;;12.27;3.03;;;;;;;47.86;18.17;98726.38;5084209;28;20062;-78
2023/07/23 07:20:11;;;;;;;8.23;2.70;;;;;;;47.76;17.62;98732.50;5093244;28;20024;-77
2023/07/23 07:22:37;;;;;;;11.90;2.90;;;;;;;47.74;17.90;98732.06;5092425;28;20099;-75
2023/07/23 07:25:02;;;;;;;10.07;2.80;;;;;;;47.69;17.56;98730.41;5082534;28;20814;-73
2023/07/23 07:27:28;;;;;;;11.33;2.43;;;;;;;47.65;17.89;98718.44;5055942;28;20032;-74
2023/07/23 07:29:54;;;;;;;15.50;2.93;;;;;;;47.68;18.00;98728.78;5040446;28;20753;-90
2023/07/23 07:32:20;;;;;;;9.60;2.55;;;;;;;47.73;17.99;98722.16;5071227;28;20542;-87
2023/07/23 07:34:45;;;;;;;14.83;3.00;;;;;;;47.62;17.96;98728.28;5073114;28;20071;-89
2023/07/23 07:37:11;;;;;;;15.20;2.77;;;;;;;47.60;17.82;98727.03;5057195;28;20098;-90
2023/07/23 07:39:37;;;;;;;12.07;3.40;;;;;;;47.59;18.18;98731.00;5074304;28;20039;-91
2023/07/23 07:42:02;;;;;;;9.38;2.58;;;;;;;47.56;18.02;98728.94;5065049;28;20051;-85
2023/07/23 07:44:28;;;;;;;11.90;2.88;;;;;;;47.47;17.90;98729.16;5065940;28;20086;-83
2023/07/23 07:46:54;;;;;;;8.40;2.80;;;;;;;47.33;18.20;98726.13;5076165;28;20036;-82
2023/07/23 07:49:19;;;;;;;8.10;2.63;;;;;;;47.27;18.55;98708.97;5068377;28;20287;-80
2023/07/23 07:51:47;;;;;;;11.80;2.53;;;;;;;47.18;18.50;98711.19;5084765;28;20028;-83
2023/07/23 07:54:13;;;;;;;10.90;3.05;;;;;;;47.14;18.24;98711.09;5076160;28;20453;-84
2023/07/23 07:56:39;;;;;;;10.93;3.03;;;;;;;47.02;18.25;98709.28;5057772;28;20040;-76
2023/07/23 07:59:06;;;;;;;12.95;3.05;;;;;;;46.47;18.26;98698.13;5089000;28;20037;-76
2023/07/23 08:01:31;;;;;;;19.10;3.42;;;;;;;46.59;17.96;98708.28;5055169;28;20063;-76
2023/07/23 08:03:57;;;;;;;10.23;3.10;;;;;;;46.63;18.50;98700.91;5072512;28;20052;-75
2023/07/23 08:06:24;;;;;;;11.67;3.20;;;;;;;46.05;18.77;98709.69;5059046;28;20274;-75
2023/07/23 08:08:50;;;;;;;12.10;3.25;;;;;;;45.95;19.33;98712.97;5075703;28;20340;-75
2023/07/23 08:11:16;;;;;;;13.75;3.20;;;;;;;45.97;19.56;98714.22;5046082;28;20040;-87
2023/07/23 08:13:41;;;;;;;12.90;2.90;;;;;;;45.93;19.57;98712.50;5055235;28;20047;-75
2023/07/23 08:16:07;;;;;;;9.77;3.40;;;;;;;45.72;19.47;98707.22;5055392;28;20075;-74
2023/07/23 08:18:33;;;;;;;12.50;3.63;;;;;;;45.01;20.18;98707.59;5040507;28;20424;-75
2023/07/23 08:20:58;;;;;;;14.27;3.40;;;;;;;45.29;20.29;98709.56;5063423;28;20111;-75
2023/07/23 08:23:27;;;;;;;9.60;3.07;;;;;;;44.61;20.97;98708.28;5055164;28;20021;-77
2023/07/23 08:25:57;;;;;;;9.63;3.20;;;;;;;44.43;20.66;98714.00;5067238;28;20483;-76
2023/07/23 08:28:27;;;;;;;14.15;3.20;;;;;;;44.78;20.25;98707.25;5092014;28;20040;-79
2023/07/23 08:30:54;;;;;;;8.55;3.38;;;;;;;44.08;20.61;98708.09;5092230;28;20394;-76
2023/07/23 08:33:19;;;;;;;11.70;3.50;;;;;;;43.76;20.76;98701.47;5091873;28;20028;-78
2023/07/23 08:35:45;;;;;;;12.87;3.20;;;;;;;43.28;20.98;98701.72;5091871;28;20039;-77
2023/07/23 08:38:11;;;;;;;12.20;3.80;;;;;;;42.87;21.49;98710.72;5074364;28;20036;-79
2023/07/23 08:40:43;;;;;;;12.93;3.60;;;;;;;42.48;21.68;98703.31;5065440;28;20024;-75
2023/07/23 08:43:59;;;;;;;13.48;3.40;;;;;;;42.06;20.21;98702.31;5055050;28;20518;-84
2023/07/23 08:46:25;;;;;;;12.45;3.65;;;;;;;41.59;20.02;98700.28;5051973;28;20064;-85
2023/07/23 08:49:03;;;;;;;8.52;3.40;;;;;;;41.34;20.67;98701.91;5030716;28;20043;-85
2023/07/23 08:51:33;;;;;;;15.70;3.63;;;;;;;41.32;20.87;98704.97;5072003;28;20048;-82
2023/07/23 08:53:59;;;;;;;8.00;3.38;;;;;;;41.67;20.48;98704.97;5055747;28;20056;-87
2023/07/23 08:56:24;;;;;;;11.60;4.13;;;;;;;41.97;20.76;98707.03;5056229;28;20427;-89
2023/07/23 08:58:51;;;;;;;9.60;3.57;;;;;;;42.11;20.83;98704.88;5049680;28;20037;-84
2023/07/23 09:01:16;;;;;;;7.13;4.03;;;;;;;42.30;20.96;98712.75;5032832;28;20068;-87
2023/07/23 09:03:42;;;;;;;11.07;3.90;;;;;;;42.52;20.63;98710.88;5016765;28;20136;-82
2023/07/23 09:06:11;;;;;;;10.27;3.90;;;;;;;42.73;20.74;98713.69;5017316;28;20482;-86
2023/07/23 09:08:36;;;;;;;7.90;3.78;;;;;;;42.86;20.52;98715.41;5016338;28;20040;-80
2023/07/23 09:11:06;;;;;;;8.50;3.93;;;;;;;42.99;20.28;98719.06;5016404;28;20047;-80
2023/07/23 09:13:36;;;;;;;8.00;3.53;;;;;;;43.09;20.53;98721.41;5022565;28;20099;-77
2023/07/23 09:16:01;;;;;;;7.35;3.92;;;;;;;43.14;20.58;98725.91;5035397;28;20029;-85
2023/07/23 09:18:27;;;;;;;10.33;4.13;;;;;;;43.16;19.97;98710.69;5073140;28;20028;-86
2023/07/23 09:20:54;;;;;;;7.27;4.00;;;;;;;43.14;19.89;98699.25;5070799;28;20476;-79
2023/07/23 09:23:19;;;;;;;9.15;3.95;;;;;;;43.19;20.02;98707.28;5053663;28;20032;-78
2023/07/23 09:25:46;;;;;;;9.73;4.53;;;;;;;43.26;19.74;98727.91;5071646;28;20033;-70
2023/07/23 09:28:24;;;;;;;8.55;3.90;;;;;;;43.19;20.14;98723.75;5070844;28;20089;-71
2023/07/23 09:30:54;;;;;;;8.98;4.07;;;;;;;43.18;19.97;98724.91;5077477;28;20403;-74
2023/07/23 09:33:19;;;;;;;6.47;4.00;;;;;;;43.15;19.97;98722.81;5089800;28;20038;-72
2023/07/23 09:35:45;;;;;;;7.17;4.13;;;;;;;43.15;20.04;98722.03;5090304;28;20032;-74
2023/07/23 09:38:13;;;;;;;6.70;3.67;;;;;;;43.18;19.97;98726.84;5090329;28;20021;-74
2023/07/23 09:40:40;;;;;;;7.93;4.00;;;;;;;43.17;19.67;98730.72;5073169;28;20032;-72
2023/07/23 09:43:06;;;;;;;7.55;3.47;;;;;;;43.16;18.51;98723.63;5073476;28;20131;-74
2023/07/23 09:45:38;;;;;;;5.53;3.70;;;;;;;43.13;19.03;98721.56;5073190;28;20115;-72
2023/07/23 09:48:03;;;;;;;7.07;4.35;;;;;;;43.12;18.91;98742.69;5077614;28;20085;-75
2023/07/23 09:50:29;;;;;;;7.60;4.10;;;;;;;43.09;18.88;98724.16;5093550;28;20414;-75
2023/07/23 09:52:55;;;;;;;7.83;3.90;;;;;;;43.06;18.56;98729.50;5088248;28;20477;-75
2023/07/23 09:55:22;;;;;;;7.30;3.38;;;;;;;42.94;17.85;98725.53;5056554;28;20072;-73
2023/07/23 09:57:49;;;;;;;8.40;3.97;;;;;;;42.94;18.16;98731.00;5061974;28;20081;-74
2023/07/23 10:00:14;;;;;;;6.10;3.70;;;;;;;42.86;18.15;98726.38;5095499;28;20506;-75
2023/07/23 10:02:40;;;;;;;5.23;3.90;;;;;;;42.79;18.22;98732.38;5077350;28;20036;-75
2023/07/23 10:05:06;;;;;;;8.50;3.40;;;;;;;42.70;17.67;98726.16;5059960;28;20136;-75
2023/07/23 10:07:32;;;;;;;6.43;3.63;;;;;;;42.65;17.91;98718.91;5077232;28;20032;-75
2023/07/23 10:09:58;;;;;;;10.82;3.70;;;;;;;42.62;17.77;98724.25;5076720;28;20032;-77
2023/07/23 10:12:24;;;;;;;6.90;3.97;;;;;;;42.55;17.78;98722.03;5079395;28;20044;-77
2023/07/23 10:14:49;;;;;;;8.33;4.00;;;;;;;42.45;17.56;98703.19;5079057;28;20561;-75
2023/07/23 10:17:15;;;;;;;7.23;4.27;;;;;;;42.45;17.77;98714.16;5076682;28;20036;-76
2023/07/23 10:19:41;;;;;;;7.80;3.57;;;;;;;42.30;17.38;98718.22;5074889;28;20518;-77
2023/07/23 10:22:06;;;;;;;8.47;4.20;;;;;;;42.21;17.17;98710.06;5093876;28;20415;-78
2023/07/23 10:24:39;;;;;;;12.10;3.80;;;;;;;42.06;17.83;98711.34;5086070;28;20082;-78
2023/07/23 10:27:17;;;;;;;15.63;4.07;;;;;;;41.94;17.77;98712.03;5073566;28;20116;-79
2023/07/23 10:30:17;;;;;;;21.02;3.72;;;;;;;41.77;17.77;98714.81;5073916;28;20501;-78
2023/07/23 10:32:44;;;;;;;16.58;4.03;;;;;;;41.59;18.27;98698.38;5055905;28;20060;-79
2023/07/23 10:35:09;;;;;;;12.73;4.18;;;;;;;41.50;18.18;98694.03;5040071;28;20557;-80
2023/07/23 10:37:35;;;;;;;14.27;3.70;;;;;;;41.45;18.68;98694.19;5073141;28;20067;-78
2023/07/23 10:40:03;;;;;;;10.83;3.70;;;;;;;41.33;18.75;98698.38;5055184;28;20036;-79
2023/07/23 10:42:34;;;;;;;5.95;3.50;;;;;;;41.25;19.06;98706.56;5057525;28;20025;-82
2023/07/23 10:45:21;;;;;;;7.07;3.95;;;;;;;41.11;19.21;98704.78;5074155;28;20040;-83
2023/07/23 10:47:58;;;;;;;7.72;4.00;;;;;;;41.02;19.32;98699.31;5073760;28;20083;-87
2023/07/23 10:50:24;;;;;;;7.22;3.80;;;;;;;40.86;19.82;98696.25;5059875;28;20090;-89
2023/07/23 10:52:51;;;;;;;8.50;3.87;;;;;;;40.74;20.19;98700.66;5056528;28;20040;-88
2023/07/23 10:55:32;;;;;;;6.05;3.55;;;;;;;40.59;20.07;98699.19;5056281;28;20023;-84
2023/07/23 10:58:01;;;;;;;7.38;3.85;;;;;;;40.46;20.26;98698.97;5078624;28;20467;-85
2023/07/23 11:00:26;;;;;;;7.43;3.90;;;;;;;40.39;20.75;98697.78;5093215;28;20039;-83
2023/07/23 11:02:53;;;;;;;7.18;3.83;;;;;;;40.36;20.61;98707.44;5088608;28;20048;-85
2023/07/23 11:05:22;;;;;;;7.07;3.80;;;;;;;40.29;20.54;98705.16;5063106;28;20052;-85
2023/07/23 11:08:20;;;;;;;7.22;4.32;;;;;;;40.19;20.87;98707.38;5075401;28;20109;-88
2023/07/23 11:10:47;;;;;;;6.32;4.00;;;;;;;40.13;20.74;98706.69;4994954;28;20125;-85
2023/07/23 11:13:13;;;;;;;8.60;3.72;;;;;;;40.00;19.84;98700.19;4996289;28;20042;-83
2023/07/23 11:15:39;;;;;;;7.37;3.73;;;;;;;39.90;19.89;98698.50;4959863;28;20543;-81
2023/07/23 11:18:04;;;;;;;8.48;3.95;;;;;;;39.86;20.28;98700.25;4980197;28;20068;-84
2023/07/23 11:20:31;;;;;;;7.22;4.03;;;;;;;39.80;20.45;98690.56;4995116;28;20428;-84
2023/07/23 11:22:59;;;;;;;6.47;3.63;;;;;;;39.69;19.88;98700.94;4979808;28;20042;-84
2023/07/23 11:25:25;;;;;;;8.30;3.63;;;;;;;39.55;19.71;98695.56;4977875;28;20034;-82